sensor_id;sensor_type;location;lat;lon;timestamp;P1;durP1;ratioP1;P2;durP2;ratioP2
13941;SDS011;7043;51.630;7.254;2023-07-20T00:00:49;7.77;;;6.03;;
13941;SDS011;7043;51.630;7.254;2023-07-20T00:03:18;7.40;;;6.03;;
13941;SDS011;7043;51.630;7.254;2023-07-20T00:05:50;9.53;;;6.43;;
13941;SDS011;7043;51.630;7.254;2023-07-20T00:08:16;11.10;;;7.33;;
13941;SDS011;7043;51.630;7.254;2023-07-20T00:10:42;10.13;;;6.60;;
13941;SDS011;7043;51.630;7.254;2023-07-20T00:13:09;7.57;;;6.67;;
13941;SDS011;7043;51.630;7.254;2023-07-20T00:15:35;12.23;;;6.83;;
13941;SDS011;7043;51.630;7.254;2023-07-20T00:18:01;8.97;;;6.73;;
13941;SDS011;7043;51.630;7.254;2023-07-20T00:20:27;7.73;;;6.87;;
13941;SDS011;7043;51.630;7.254;2023-07-20T00:22:53;9.63;;;7.00;;
13941;SDS011;7043;51.630;7.254;2023-07-20T00:25:20;10.23;;;6.70;;
13941;SDS011;7043;51.630;7.254;2023-07-20T00:27:46;9.27;;;6.97;;
13941;SDS011;7043;51.630;7.254;2023-07-20T00:30:12;9.70;;;6.80;;
13941;SDS011;7043;51.630;7.254;2023-07-20T00:32:38;12.07;;;7.43;;
13941;SDS011;7043;51.630;7.254;2023-07-20T00:35:04;8.37;;;6.60;;
13941;SDS011;7043;51.630;7.254;2023-07-20T00:37:31;9.80;;;6.57;;
13941;SDS011;7043;51.630;7.254;2023-07-20T00:39:57;8.97;;;6.83;;
13941;SDS011;7043;51.630;7.254;2023-07-20T00:42:23;10.23;;;6.87;;
13941;SDS011;7043;51.630;7.254;2023-07-20T00:44:49;7.53;;;6.57;;
13941;SDS011;7043;51.630;7.254;2023-07-20T00:47:15;9.20;;;7.07;;
13941;SDS011;7043;51.630;7.254;2023-07-20T00:49:41;9.67;;;7.57;;
13941;SDS011;7043;51.630;7.254;2023-07-20T00:52:08;8.73;;;6.60;;
13941;SDS011;7043;51.630;7.254;2023-07-20T00:54:34;8.03;;;6.87;;
13941;SDS011;7043;51.630;7.254;2023-07-20T00:57:01;8.80;;;6.47;;
13941;SDS011;7043;51.630;7.254;2023-07-20T00:59:28;8.07;;;6.50;;
13941;SDS011;7043;51.630;7.254;2023-07-20T01:01:54;8.80;;;6.90;;
13941;SDS011;7043;51.630;7.254;2023-07-20T01:04:20;8.37;;;6.10;;
13941;SDS011;7043;51.630;7.254;2023-07-20T01:07:49;11.17;;;7.13;;
13941;SDS011;7043;51.630;7.254;2023-07-20T01:09:48;9.03;;;6.20;;
13941;SDS011;7043;51.630;7.254;2023-07-20T01:14:48;9.17;;;6.50;;
13941;SDS011;7043;51.630;7.254;2023-07-20T01:17:14;9.77;;;6.60;;
13941;SDS011;7043;51.630;7.254;2023-07-20T01:19:40;10.13;;;6.70;;
13941;SDS011;7043;51.630;7.254;2023-07-20T01:25:01;8.73;;;6.77;;
13941;SDS011;7043;51.630;7.254;2023-07-20T01:27:36;11.43;;;7.33;;
13941;SDS011;7043;51.630;7.254;2023-07-20T01:30:14;9.20;;;7.17;;
13941;SDS011;7043;51.630;7.254;2023-07-20T01:32:42;12.80;;;7.63;;
13941;SDS011;7043;51.630;7.254;2023-07-20T01:35:10;11.67;;;7.30;;
13941;SDS011;7043;51.630;7.254;2023-07-20T01:37:39;9.93;;;7.30;;
13941;SDS011;7043;51.630;7.254;2023-07-20T01:40:06;9.70;;;6.87;;
13941;SDS011;7043;51.630;7.254;2023-07-20T01:42:33;9.53;;;7.30;;
13941;SDS011;7043;51.630;7.254;2023-07-20T01:44:59;7.87;;;6.90;;
13941;SDS011;7043;51.630;7.254;2023-07-20T01:47:25;8.83;;;7.20;;
13941;SDS011;7043;51.630;7.254;2023-07-20T01:49:51;7.60;;;6.70;;
13941;SDS011;7043;51.630;7.254;2023-07-20T01:52:17;9.30;;;7.07;;
13941;SDS011;7043;51.630;7.254;2023-07-20T01:54:43;9.87;;;7.10;;
13941;SDS011;7043;51.630;7.254;2023-07-20T01:57:09;7.87;;;7.10;;
13941;SDS011;7043;51.630;7.254;2023-07-20T01:59:35;9.73;;;7.63;;
13941;SDS011;7043;51.630;7.254;2023-07-20T02:02:01;10.95;;;7.60;;
13941;SDS011;7043;51.630;7.254;2023-07-20T02:04:27;12.53;;;8.27;;
13941;SDS011;7043;51.630;7.254;2023-07-20T02:06:53;12.15;;;8.52;;
13941;SDS011;7043;51.630;7.254;2023-07-20T02:09:18;12.70;;;9.57;;
13941;SDS011;7043;51.630;7.254;2023-07-20T02:11:45;13.17;;;10.40;;
13941;SDS011;7043;51.630;7.254;2023-07-20T02:14:11;14.47;;;12.70;;
13941;SDS011;7043;51.630;7.254;2023-07-20T02:16:37;15.77;;;12.63;;
13941;SDS011;7043;51.630;7.254;2023-07-20T02:19:03;14.87;;;13.43;;
13941;SDS011;7043;51.630;7.254;2023-07-20T02:21:31;15.77;;;14.07;;
13941;SDS011;7043;51.630;7.254;2023-07-20T02:23:58;19.20;;;15.20;;
13941;SDS011;7043;51.630;7.254;2023-07-20T02:26:25;16.87;;;15.03;;
13941;SDS011;7043;51.630;7.254;2023-07-20T02:28:51;19.53;;;15.30;;
13941;SDS011;7043;51.630;7.254;2023-07-20T02:31:17;16.87;;;14.33;;
13941;SDS011;7043;51.630;7.254;2023-07-20T02:33:42;16.17;;;14.57;;
13941;SDS011;7043;51.630;7.254;2023-07-20T02:36:08;16.13;;;14.53;;
13941;SDS011;7043;51.630;7.254;2023-07-20T02:38:34;17.63;;;15.67;;
13941;SDS011;7043;51.630;7.254;2023-07-20T02:41:00;17.77;;;15.47;;
13941;SDS011;7043;51.630;7.254;2023-07-20T02:43:27;18.93;;;16.63;;
13941;SDS011;7043;51.630;7.254;2023-07-20T02:45:53;20.07;;;16.80;;
13941;SDS011;7043;51.630;7.254;2023-07-20T02:48:19;20.00;;;17.50;;
13941;SDS011;7043;51.630;7.254;2023-07-20T02:50:45;19.97;;;17.87;;
13941;SDS011;7043;51.630;7.254;2023-07-20T02:53:11;20.27;;;18.07;;
13941;SDS011;7043;51.630;7.254;2023-07-20T02:55:37;18.27;;;16.47;;
13941;SDS011;7043;51.630;7.254;2023-07-20T02:58:03;19.43;;;17.53;;
13941;SDS011;7043;51.630;7.254;2023-07-20T03:00:29;20.67;;;18.50;;
13941;SDS011;7043;51.630;7.254;2023-07-20T03:02:55;21.53;;;18.90;;
13941;SDS011;7043;51.630;7.254;2023-07-20T03:05:22;21.50;;;19.07;;
13941;SDS011;7043;51.630;7.254;2023-07-20T03:07:53;22.17;;;19.77;;
13941;SDS011;7043;51.630;7.254;2023-07-20T03:10:19;21.83;;;19.53;;
13941;SDS011;7043;51.630;7.254;2023-07-20T03:12:45;25.10;;;20.43;;
13941;SDS011;7043;51.630;7.254;2023-07-20T03:15:11;23.90;;;19.73;;
13941;SDS011;7043;51.630;7.254;2023-07-20T03:17:37;22.27;;;19.97;;
13941;SDS011;7043;51.630;7.254;2023-07-20T03:20:03;21.20;;;18.90;;
13941;SDS011;7043;51.630;7.254;2023-07-20T03:22:30;22.20;;;18.80;;
13941;SDS011;7043;51.630;7.254;2023-07-20T03:24:56;24.00;;;21.47;;
13941;SDS011;7043;51.630;7.254;2023-07-20T03:27:22;21.77;;;19.57;;
13941;SDS011;7043;51.630;7.254;2023-07-20T03:29:48;22.90;;;20.60;;
13941;SDS011;7043;51.630;7.254;2023-07-20T03:32:14;22.93;;;20.57;;
13941;SDS011;7043;51.630;7.254;2023-07-20T03:34:40;22.20;;;19.93;;
13941;SDS011;7043;51.630;7.254;2023-07-20T03:37:06;23.53;;;21.17;;
13941;SDS011;7043;51.630;7.254;2023-07-20T03:39:32;25.27;;;22.50;;
13941;SDS011;7043;51.630;7.254;2023-07-20T03:41:58;25.43;;;22.93;;
13941;SDS011;7043;51.630;7.254;2023-07-20T03:44:24;25.63;;;23.03;;
13941;SDS011;7043;51.630;7.254;2023-07-20T03:46:50;26.90;;;24.00;;
13941;SDS011;7043;51.630;7.254;2023-07-20T03:49:16;26.57;;;23.77;;
13941;SDS011;7043;51.630;7.254;2023-07-20T03:51:42;27.43;;;24.57;;
13941;SDS011;7043;51.630;7.254;2023-07-20T03:54:08;29.63;;;26.53;;
13941;SDS011;7043;51.630;7.254;2023-07-20T03:56:34;29.23;;;26.30;;
13941;SDS011;7043;51.630;7.254;2023-07-20T03:59:01;30.53;;;26.47;;
13941;SDS011;7043;51.630;7.254;2023-07-20T04:01:27;28.77;;;25.97;;
13941;SDS011;7043;51.630;7.254;2023-07-20T04:03:53;27.20;;;24.60;;
13941;SDS011;7043;51.630;7.254;2023-07-20T04:06:19;26.63;;;24.03;;
13941;SDS011;7043;51.630;7.254;2023-07-20T04:08:45;27.77;;;25.03;;
13941;SDS011;7043;51.630;7.254;2023-07-20T04:11:12;28.87;;;25.97;;
13941;SDS011;7043;51.630;7.254;2023-07-20T04:13:38;29.70;;;26.70;;
13941;SDS011;7043;51.630;7.254;2023-07-20T04:16:04;29.00;;;26.00;;
13941;SDS011;7043;51.630;7.254;2023-07-20T04:18:30;28.47;;;25.67;;
13941;SDS011;7043;51.630;7.254;2023-07-20T04:20:56;27.70;;;25.00;;
13941;SDS011;7043;51.630;7.254;2023-07-20T04:23:22;26.57;;;23.87;;
13941;SDS011;7043;51.630;7.254;2023-07-20T04:25:48;24.90;;;22.40;;
13941;SDS011;7043;51.630;7.254;2023-07-20T04:28:14;25.77;;;23.37;;
13941;SDS011;7043;51.630;7.254;2023-07-20T04:30:40;24.90;;;22.30;;
13941;SDS011;7043;51.630;7.254;2023-07-20T04:33:06;24.40;;;22.00;;
13941;SDS011;7043;51.630;7.254;2023-07-20T04:38:10;19.03;;;17.17;;
13941;SDS011;7043;51.630;7.254;2023-07-20T04:40:36;20.47;;;18.37;;
13941;SDS011;7043;51.630;7.254;2023-07-20T04:43:02;17.80;;;16.10;;
13941;SDS011;7043;51.630;7.254;2023-07-20T04:45:28;15.50;;;14.10;;
13941;SDS011;7043;51.630;7.254;2023-07-20T04:47:55;15.63;;;14.13;;
13941;SDS011;7043;51.630;7.254;2023-07-20T04:50:21;14.50;;;13.27;;
13941;SDS011;7043;51.630;7.254;2023-07-20T04:52:46;14.10;;;12.70;;
13941;SDS011;7043;51.630;7.254;2023-07-20T04:55:13;14.27;;;12.97;;
13941;SDS011;7043;51.630;7.254;2023-07-20T04:57:39;14.20;;;12.90;;
13941;SDS011;7043;51.630;7.254;2023-07-20T05:00:05;14.47;;;13.27;;
13941;SDS011;7043;51.630;7.254;2023-07-20T05:02:31;14.73;;;13.33;;
13941;SDS011;7043;51.630;7.254;2023-07-20T05:04:57;14.57;;;13.27;;
13941;SDS011;7043;51.630;7.254;2023-07-20T05:07:23;13.07;;;11.90;;
13941;SDS011;7043;51.630;7.254;2023-07-20T05:09:49;14.27;;;13.07;;
13941;SDS011;7043;51.630;7.254;2023-07-20T05:12:15;13.73;;;12.37;;
13941;SDS011;7043;51.630;7.254;2023-07-20T05:14:41;12.87;;;11.77;;
13941;SDS011;7043;51.630;7.254;2023-07-20T05:17:07;13.77;;;12.57;;
13941;SDS011;7043;51.630;7.254;2023-07-20T05:19:33;13.63;;;12.33;;
13941;SDS011;7043;51.630;7.254;2023-07-20T05:21:59;14.33;;;13.03;;
13941;SDS011;7043;51.630;7.254;2023-07-20T05:24:25;14.37;;;13.17;;
13941;SDS011;7043;51.630;7.254;2023-07-20T05:26:51;14.47;;;13.17;;
13941;SDS011;7043;51.630;7.254;2023-07-20T05:29:17;14.00;;;12.80;;
13941;SDS011;7043;51.630;7.254;2023-07-20T05:31:43;14.57;;;13.17;;
13941;SDS011;7043;51.630;7.254;2023-07-20T05:34:09;13.23;;;12.03;;
13941;SDS011;7043;51.630;7.254;2023-07-20T05:36:35;13.17;;;11.87;;
13941;SDS011;7043;51.630;7.254;2023-07-20T05:39:02;11.97;;;10.77;;
13941;SDS011;7043;51.630;7.254;2023-07-20T05:41:28;11.30;;;10.30;;
13941;SDS011;7043;51.630;7.254;2023-07-20T05:43:54;11.37;;;10.40;;
13941;SDS011;7043;51.630;7.254;2023-07-20T05:46:20;11.50;;;10.50;;
13941;SDS011;7043;51.630;7.254;2023-07-20T05:48:46;10.63;;;9.73;;
13941;SDS011;7043;51.630;7.254;2023-07-20T05:51:12;12.00;;;10.90;;
13941;SDS011;7043;51.630;7.254;2023-07-20T05:53:38;10.93;;;9.93;;
13941;SDS011;7043;51.630;7.254;2023-07-20T05:56:04;10.70;;;9.80;;
13941;SDS011;7043;51.630;7.254;2023-07-20T05:58:30;9.63;;;8.73;;
13941;SDS011;7043;51.630;7.254;2023-07-20T06:00:56;9.77;;;8.97;;
13941;SDS011;7043;51.630;7.254;2023-07-20T06:03:23;10.10;;;9.30;;
13941;SDS011;7043;51.630;7.254;2023-07-20T06:05:49;9.87;;;8.97;;
13941;SDS011;7043;51.630;7.254;2023-07-20T06:08:15;9.70;;;8.83;;
13941;SDS011;7043;51.630;7.254;2023-07-20T06:10:41;9.83;;;9.03;;
13941;SDS011;7043;51.630;7.254;2023-07-20T06:13:07;9.20;;;8.40;;
13941;SDS011;7043;51.630;7.254;2023-07-20T06:15:33;10.37;;;9.37;;
13941;SDS011;7043;51.630;7.254;2023-07-20T06:18:04;8.73;;;8.03;;
13941;SDS011;7043;51.630;7.254;2023-07-20T06:20:30;7.97;;;7.27;;
13941;SDS011;7043;51.630;7.254;2023-07-20T06:22:55;7.40;;;6.70;;
13941;SDS011;7043;51.630;7.254;2023-07-20T06:25:21;7.03;;;6.43;;
13941;SDS011;7043;51.630;7.254;2023-07-20T06:27:48;6.30;;;5.80;;
13941;SDS011;7043;51.630;7.254;2023-07-20T06:30:16;6.43;;;5.87;;
13941;SDS011;7043;51.630;7.254;2023-07-20T06:32:42;5.20;;;4.80;;
13941;SDS011;7043;51.630;7.254;2023-07-20T06:35:08;5.60;;;5.10;;
13941;SDS011;7043;51.630;7.254;2023-07-20T06:37:34;5.83;;;5.33;;
13941;SDS011;7043;51.630;7.254;2023-07-20T06:40:01;5.53;;;4.97;;
13941;SDS011;7043;51.630;7.254;2023-07-20T06:42:28;4.67;;;4.17;;
13941;SDS011;7043;51.630;7.254;2023-07-20T06:44:55;4.73;;;4.33;;
13941;SDS011;7043;51.630;7.254;2023-07-20T06:47:20;4.40;;;4.03;;
13941;SDS011;7043;51.630;7.254;2023-07-20T06:49:47;5.00;;;4.50;;
13941;SDS011;7043;51.630;7.254;2023-07-20T06:52:13;4.50;;;4.20;;
13941;SDS011;7043;51.630;7.254;2023-07-20T06:54:39;3.90;;;3.60;;
13941;SDS011;7043;51.630;7.254;2023-07-20T06:57:05;3.58;;;3.33;;
13941;SDS011;7043;51.630;7.254;2023-07-20T06:59:31;3.90;;;3.37;;
13941;SDS011;7043;51.630;7.254;2023-07-20T07:01:57;3.97;;;3.57;;
13941;SDS011;7043;51.630;7.254;2023-07-20T07:04:23;3.97;;;3.10;;
13941;SDS011;7043;51.630;7.254;2023-07-20T07:06:49;3.33;;;2.87;;
13941;SDS011;7043;51.630;7.254;2023-07-20T07:09:15;2.60;;;2.40;;
13941;SDS011;7043;51.630;7.254;2023-07-20T07:11:41;3.40;;;2.55;;
13941;SDS011;7043;51.630;7.254;2023-07-20T07:14:07;2.50;;;2.30;;
13941;SDS011;7043;51.630;7.254;2023-07-20T07:16:33;3.37;;;2.80;;
13941;SDS011;7043;51.630;7.254;2023-07-20T07:18:59;2.80;;;2.60;;
13941;SDS011;7043;51.630;7.254;2023-07-20T07:21:25;2.83;;;2.63;;
13941;SDS011;7043;51.630;7.254;2023-07-20T07:23:51;2.30;;;2.10;;
13941;SDS011;7043;51.630;7.254;2023-07-20T07:26:19;2.90;;;2.70;;
13941;SDS011;7043;51.630;7.254;2023-07-20T07:28:46;2.93;;;2.20;;
13941;SDS011;7043;51.630;7.254;2023-07-20T07:31:12;2.63;;;2.40;;
13941;SDS011;7043;51.630;7.254;2023-07-20T07:33:38;2.50;;;2.30;;
13941;SDS011;7043;51.630;7.254;2023-07-20T07:36:04;3.60;;;2.55;;
13941;SDS011;7043;51.630;7.254;2023-07-20T07:38:30;3.00;;;2.47;;
13941;SDS011;7043;51.630;7.254;2023-07-20T07:40:57;2.75;;;2.40;;
13941;SDS011;7043;51.630;7.254;2023-07-20T07:43:23;2.43;;;1.90;;
13941;SDS011;7043;51.630;7.254;2023-07-20T07:45:49;2.08;;;1.98;;
13941;SDS011;7043;51.630;7.254;2023-07-20T07:48:15;2.50;;;2.27;;
13941;SDS011;7043;51.630;7.254;2023-07-20T07:50:42;2.07;;;1.80;;
13941;SDS011;7043;51.630;7.254;2023-07-20T07:53:08;1.70;;;1.55;;
13941;SDS011;7043;51.630;7.254;2023-07-20T07:55:34;1.42;;;1.33;;
13941;SDS011;7043;51.630;7.254;2023-07-20T07:58:00;2.00;;;1.83;;
13941;SDS011;7043;51.630;7.254;2023-07-20T08:00:26;2.90;;;1.87;;
13941;SDS011;7043;51.630;7.254;2023-07-20T08:02:52;2.00;;;1.80;;
13941;SDS011;7043;51.630;7.254;2023-07-20T08:05:18;2.22;;;1.85;;
13941;SDS011;7043;51.630;7.254;2023-07-20T08:07:44;1.15;;;1.05;;
13941;SDS011;7043;51.630;7.254;2023-07-20T08:10:10;1.45;;;1.30;;
13941;SDS011;7043;51.630;7.254;2023-07-20T08:12:36;1.67;;;1.55;;
13941;SDS011;7043;51.630;7.254;2023-07-20T08:15:02;1.85;;;1.42;;
13941;SDS011;7043;51.630;7.254;2023-07-20T08:17:29;1.20;;;1.10;;
13941;SDS011;7043;51.630;7.254;2023-07-20T08:19:55;1.40;;;1.30;;
13941;SDS011;7043;51.630;7.254;2023-07-20T08:22:21;1.90;;;1.30;;
13941;SDS011;7043;51.630;7.254;2023-07-20T08:24:47;1.45;;;1.35;;
13941;SDS011;7043;51.630;7.254;2023-07-20T08:27:13;1.67;;;1.58;;
13941;SDS011;7043;51.630;7.254;2023-07-20T08:29:41;1.95;;;1.27;;
13941;SDS011;7043;51.630;7.254;2023-07-20T08:32:07;1.58;;;1.33;;
13941;SDS011;7043;51.630;7.254;2023-07-20T08:34:33;2.53;;;1.30;;
13941;SDS011;7043;51.630;7.254;2023-07-20T08:36:59;1.92;;;1.20;;
13941;SDS011;7043;51.630;7.254;2023-07-20T08:39:25;1.05;;;0.95;;
13941;SDS011;7043;51.630;7.254;2023-07-20T08:41:51;1.17;;;1.08;;
13941;SDS011;7043;51.630;7.254;2023-07-20T08:44:17;1.52;;;1.30;;
13941;SDS011;7043;51.630;7.254;2023-07-20T08:46:51;1.33;;;1.00;;
13941;SDS011;7043;51.630;7.254;2023-07-20T08:49:17;1.83;;;1.23;;
13941;SDS011;7043;51.630;7.254;2023-07-20T08:51:46;1.58;;;1.45;;
13941;SDS011;7043;51.630;7.254;2023-07-20T08:54:14;2.45;;;1.25;;
13941;SDS011;7043;51.630;7.254;2023-07-20T08:56:42;1.02;;;0.88;;
13941;SDS011;7043;51.630;7.254;2023-07-20T08:59:10;1.10;;;0.80;;
13941;SDS011;7043;51.630;7.254;2023-07-20T09:01:37;1.38;;;0.90;;
13941;SDS011;7043;51.630;7.254;2023-07-20T09:04:04;0.75;;;0.75;;
13941;SDS011;7043;51.630;7.254;2023-07-20T09:06:30;1.10;;;1.00;;
13941;SDS011;7043;51.630;7.254;2023-07-20T09:08:56;1.10;;;0.70;;
13941;SDS011;7043;51.630;7.254;2023-07-20T09:11:22;1.17;;;1.00;;
13941;SDS011;7043;51.630;7.254;2023-07-20T09:14:01;2.92;;;1.05;;
13941;SDS011;7043;51.630;7.254;2023-07-20T09:16:27;0.88;;;0.70;;
13941;SDS011;7043;51.630;7.254;2023-07-20T09:18:54;0.73;;;0.50;;
13941;SDS011;7043;51.630;7.254;2023-07-20T09:21:23;1.38;;;0.60;;
13941;SDS011;7043;51.630;7.254;2023-07-20T09:23:49;1.38;;;0.90;;
13941;SDS011;7043;51.630;7.254;2023-07-20T09:26:18;1.35;;;1.20;;
13941;SDS011;7043;51.630;7.254;2023-07-20T09:28:48;1.30;;;1.20;;
13941;SDS011;7043;51.630;7.254;2023-07-20T09:31:17;2.28;;;1.13;;
13941;SDS011;7043;51.630;7.254;2023-07-20T09:33:43;1.50;;;1.20;;
13941;SDS011;7043;51.630;7.254;2023-07-20T09:36:10;1.45;;;1.35;;
13941;SDS011;7043;51.630;7.254;2023-07-20T09:38:40;1.77;;;1.30;;
13941;SDS011;7043;51.630;7.254;2023-07-20T09:41:07;1.65;;;1.13;;
13941;SDS011;7043;51.630;7.254;2023-07-20T09:43:36;1.88;;;1.20;;
13941;SDS011;7043;51.630;7.254;2023-07-20T09:46:02;2.03;;;1.90;;
13941;SDS011;7043;51.630;7.254;2023-07-20T09:48:29;2.55;;;2.40;;
13941;SDS011;7043;51.630;7.254;2023-07-20T09:50:55;3.50;;;3.30;;
13941;SDS011;7043;51.630;7.254;2023-07-20T09:53:21;3.50;;;3.30;;
13941;SDS011;7043;51.630;7.254;2023-07-20T09:55:50;2.90;;;2.67;;
13941;SDS011;7043;51.630;7.254;2023-07-20T09:58:16;2.20;;;2.00;;
13941;SDS011;7043;51.630;7.254;2023-07-20T10:00:42;3.00;;;1.70;;
13941;SDS011;7043;51.630;7.254;2023-07-20T10:03:11;2.05;;;1.90;;
13941;SDS011;7043;51.630;7.254;2023-07-20T10:05:43;1.70;;;1.60;;
13941;SDS011;7043;51.630;7.254;2023-07-20T10:08:11;2.08;;;1.90;;
13941;SDS011;7043;51.630;7.254;2023-07-20T10:10:38;2.05;;;1.63;;
13941;SDS011;7043;51.630;7.254;2023-07-20T10:13:04;1.52;;;1.42;;
13941;SDS011;7043;51.630;7.254;2023-07-20T10:15:40;1.75;;;1.30;;
13941;SDS011;7043;51.630;7.254;2023-07-20T10:18:18;3.50;;;2.20;;
13941;SDS011;7043;51.630;7.254;2023-07-20T10:20:46;2.15;;;1.95;;
13941;SDS011;7043;51.630;7.254;2023-07-20T10:23:13;2.10;;;1.90;;
13941;SDS011;7043;51.630;7.254;2023-07-20T10:25:39;1.88;;;1.77;;
13941;SDS011;7043;51.630;7.254;2023-07-20T10:28:07;2.28;;;2.03;;
13941;SDS011;7043;51.630;7.254;2023-07-20T10:30:34;2.13;;;1.50;;
13941;SDS011;7043;51.630;7.254;2023-07-20T10:33:01;1.42;;;1.25;;
13941;SDS011;7043;51.630;7.254;2023-07-20T10:35:28;1.50;;;1.40;;
13941;SDS011;7043;51.630;7.254;2023-07-20T10:37:58;1.30;;;1.20;;
13941;SDS011;7043;51.630;7.254;2023-07-20T10:43:05;1.17;;;1.08;;
13941;SDS011;7043;51.630;7.254;2023-07-20T10:45:34;0.70;;;0.70;;
13941;SDS011;7043;51.630;7.254;2023-07-20T10:48:13;1.58;;;0.90;;
13941;SDS011;7043;51.630;7.254;2023-07-20T10:50:41;0.90;;;0.88;;
13941;SDS011;7043;51.630;7.254;2023-07-20T10:53:17;1.15;;;1.05;;
13941;SDS011;7043;51.630;7.254;2023-07-20T10:55:44;1.58;;;1.08;;
13941;SDS011;7043;51.630;7.254;2023-07-20T10:58:15;1.10;;;1.00;;
13941;SDS011;7043;51.630;7.254;2023-07-20T11:00:57;1.20;;;1.10;;
13941;SDS011;7043;51.630;7.254;2023-07-20T11:03:29;0.93;;;0.90;;
13941;SDS011;7043;51.630;7.254;2023-07-20T11:05:56;2.33;;;1.10;;
13941;SDS011;7043;51.630;7.254;2023-07-20T11:08:38;0.90;;;0.90;;
13941;SDS011;7043;51.630;7.254;2023-07-20T11:13:59;1.35;;;0.90;;
13941;SDS011;7043;51.630;7.254;2023-07-20T11:16:32;0.80;;;0.80;;
13941;SDS011;7043;51.630;7.254;2023-07-20T11:18:59;0.90;;;0.90;;
13941;SDS011;7043;51.630;7.254;2023-07-20T11:21:25;1.08;;;0.90;;
13941;SDS011;7043;51.630;7.254;2023-07-20T11:23:52;2.10;;;0.85;;
13941;SDS011;7043;51.630;7.254;2023-07-20T11:26:18;1.15;;;0.70;;
13941;SDS011;7043;51.630;7.254;2023-07-20T11:28:51;0.82;;;0.70;;
13941;SDS011;7043;51.630;7.254;2023-07-20T11:31:20;2.03;;;0.63;;
13941;SDS011;7043;51.630;7.254;2023-07-20T11:33:46;1.42;;;0.80;;
13941;SDS011;7043;51.630;7.254;2023-07-20T11:36:12;0.68;;;0.60;;
13941;SDS011;7043;51.630;7.254;2023-07-20T11:38:41;1.17;;;0.80;;
13941;SDS011;7043;51.630;7.254;2023-07-20T11:41:08;0.50;;;0.50;;
13941;SDS011;7043;51.630;7.254;2023-07-20T11:43:35;2.00;;;0.60;;
13941;SDS011;7043;51.630;7.254;2023-07-20T11:46:03;1.08;;;0.60;;
13941;SDS011;7043;51.630;7.254;2023-07-20T11:48:30;1.60;;;0.70;;
13941;SDS011;7043;51.630;7.254;2023-07-20T11:50:56;0.80;;;0.75;;
13941;SDS011;7043;51.630;7.254;2023-07-20T11:53:22;0.60;;;0.52;;
13941;SDS011;7043;51.630;7.254;2023-07-20T11:55:50;1.55;;;0.70;;
13941;SDS011;7043;51.630;7.254;2023-07-20T11:58:16;1.35;;;0.70;;
13941;SDS011;7043;51.630;7.254;2023-07-20T12:00:43;0.82;;;0.80;;
13941;SDS011;7043;51.630;7.254;2023-07-20T12:03:11;1.90;;;0.70;;
13941;SDS011;7043;51.630;7.254;2023-07-20T12:05:38;0.88;;;0.70;;
13941;SDS011;7043;51.630;7.254;2023-07-20T12:08:04;2.22;;;0.88;;
13941;SDS011;7043;51.630;7.254;2023-07-20T12:10:30;0.77;;;0.77;;
13941;SDS011;7043;51.630;7.254;2023-07-20T12:13:02;0.85;;;0.60;;
13941;SDS011;7043;51.630;7.254;2023-07-20T12:15:29;0.70;;;0.60;;
13941;SDS011;7043;51.630;7.254;2023-07-20T12:17:57;0.90;;;0.70;;
13941;SDS011;7043;51.630;7.254;2023-07-20T12:20:27;0.70;;;0.70;;
13941;SDS011;7043;51.630;7.254;2023-07-20T12:22:55;0.85;;;0.60;;
13941;SDS011;7043;51.630;7.254;2023-07-20T12:25:21;0.55;;;0.40;;
13941;SDS011;7043;51.630;7.254;2023-07-20T12:27:48;1.80;;;1.70;;
13941;SDS011;7043;51.630;7.254;2023-07-20T12:30:14;1.17;;;0.70;;
13941;SDS011;7043;51.630;7.254;2023-07-20T12:32:40;0.60;;;0.60;;
13941;SDS011;7043;51.630;7.254;2023-07-20T12:35:06;1.38;;;0.55;;
13941;SDS011;7043;51.630;7.254;2023-07-20T12:37:32;1.20;;;0.98;;
13941;SDS011;7043;51.630;7.254;2023-07-20T12:39:58;0.65;;;0.60;;
13941;SDS011;7043;51.630;7.254;2023-07-20T12:42:24;0.60;;;0.55;;
13941;SDS011;7043;51.630;7.254;2023-07-20T12:44:50;0.60;;;0.50;;
13941;SDS011;7043;51.630;7.254;2023-07-20T12:47:17;1.00;;;0.93;;
13941;SDS011;7043;51.630;7.254;2023-07-20T12:49:43;1.10;;;0.82;;
13941;SDS011;7043;51.630;7.254;2023-07-20T12:52:12;1.25;;;0.57;;
13941;SDS011;7043;51.630;7.254;2023-07-20T12:54:38;0.50;;;0.50;;
13941;SDS011;7043;51.630;7.254;2023-07-20T12:57:04;0.90;;;0.68;;
13941;SDS011;7043;51.630;7.254;2023-07-20T12:59:30;0.57;;;0.40;;
13941;SDS011;7043;51.630;7.254;2023-07-20T13:01:56;0.75;;;0.60;;
13941;SDS011;7043;51.630;7.254;2023-07-20T13:04:22;1.40;;;0.63;;
13941;SDS011;7043;51.630;7.254;2023-07-20T13:06:49;0.82;;;0.60;;
13941;SDS011;7043;51.630;7.254;2023-07-20T13:09:14;1.02;;;0.55;;
13941;SDS011;7043;51.630;7.254;2023-07-20T13:11:41;1.35;;;0.70;;
13941;SDS011;7043;51.630;7.254;2023-07-20T13:14:07;1.45;;;0.60;;
13941;SDS011;7043;51.630;7.254;2023-07-20T13:16:33;1.40;;;0.63;;
13941;SDS011;7043;51.630;7.254;2023-07-20T13:19:00;1.10;;;0.60;;
13941;SDS011;7043;51.630;7.254;2023-07-20T13:21:26;0.70;;;0.52;;
13941;SDS011;7043;51.630;7.254;2023-07-20T13:23:52;1.13;;;0.60;;
13941;SDS011;7043;51.630;7.254;2023-07-20T13:26:18;1.13;;;0.73;;
13941;SDS011;7043;51.630;7.254;2023-07-20T13:28:44;1.45;;;0.68;;
13941;SDS011;7043;51.630;7.254;2023-07-20T13:31:10;0.60;;;0.52;;
13941;SDS011;7043;51.630;7.254;2023-07-20T13:33:37;1.15;;;0.68;;
13941;SDS011;7043;51.630;7.254;2023-07-20T13:36:03;1.00;;;0.50;;
13941;SDS011;7043;51.630;7.254;2023-07-20T13:38:30;0.68;;;0.55;;
13941;SDS011;7043;51.630;7.254;2023-07-20T13:40:56;1.95;;;0.70;;
13941;SDS011;7043;51.630;7.254;2023-07-20T13:43:22;0.90;;;0.60;;
13941;SDS011;7043;51.630;7.254;2023-07-20T13:45:48;1.05;;;0.60;;
13941;SDS011;7043;51.630;7.254;2023-07-20T13:48:14;1.00;;;0.70;;
13941;SDS011;7043;51.630;7.254;2023-07-20T13:50:42;0.75;;;0.60;;
13941;SDS011;7043;51.630;7.254;2023-07-20T13:53:08;0.70;;;0.60;;
13941;SDS011;7043;51.630;7.254;2023-07-20T13:55:34;2.25;;;0.60;;
13941;SDS011;7043;51.630;7.254;2023-07-20T13:58:02;0.93;;;0.60;;
13941;SDS011;7043;51.630;7.254;2023-07-20T14:00:28;1.20;;;0.73;;
13941;SDS011;7043;51.630;7.254;2023-07-20T14:02:57;0.98;;;0.70;;
13941;SDS011;7043;51.630;7.254;2023-07-20T14:05:23;0.85;;;0.63;;
13941;SDS011;7043;51.630;7.254;2023-07-20T14:07:49;0.80;;;0.60;;
13941;SDS011;7043;51.630;7.254;2023-07-20T14:10:15;0.73;;;0.60;;
13941;SDS011;7043;51.630;7.254;2023-07-20T14:12:42;0.80;;;0.70;;
13941;SDS011;7043;51.630;7.254;2023-07-20T14:15:09;1.05;;;0.70;;
13941;SDS011;7043;51.630;7.254;2023-07-20T14:17:35;1.55;;;0.80;;
13941;SDS011;7043;51.630;7.254;2023-07-20T14:20:01;0.70;;;0.70;;
13941;SDS011;7043;51.630;7.254;2023-07-20T14:22:30;0.85;;;0.77;;
13941;SDS011;7043;51.630;7.254;2023-07-20T14:24:56;1.63;;;0.70;;
13941;SDS011;7043;51.630;7.254;2023-07-20T14:27:22;1.27;;;0.70;;
13941;SDS011;7043;51.630;7.254;2023-07-20T14:29:48;1.02;;;0.57;;
13941;SDS011;7043;51.630;7.254;2023-07-20T14:32:14;0.73;;;0.68;;
13941;SDS011;7043;51.630;7.254;2023-07-20T14:34:40;1.10;;;0.63;;
13941;SDS011;7043;51.630;7.254;2023-07-20T14:37:06;0.95;;;0.70;;
13941;SDS011;7043;51.630;7.254;2023-07-20T14:39:32;1.65;;;1.17;;
13941;SDS011;7043;51.630;7.254;2023-07-20T14:41:58;0.80;;;0.68;;
13941;SDS011;7043;51.630;7.254;2023-07-20T14:44:24;1.08;;;0.85;;
13941;SDS011;7043;51.630;7.254;2023-07-20T14:46:50;1.13;;;0.70;;
13941;SDS011;7043;51.630;7.254;2023-07-20T14:49:16;0.60;;;0.60;;
13941;SDS011;7043;51.630;7.254;2023-07-20T14:51:43;0.65;;;0.60;;
13941;SDS011;7043;51.630;7.254;2023-07-20T14:54:11;1.10;;;0.70;;
13941;SDS011;7043;51.630;7.254;2023-07-20T14:56:38;2.28;;;0.80;;
13941;SDS011;7043;51.630;7.254;2023-07-20T14:59:05;0.60;;;0.55;;
13941;SDS011;7043;51.630;7.254;2023-07-20T15:01:31;0.98;;;0.70;;
13941;SDS011;7043;51.630;7.254;2023-07-20T15:03:57;2.05;;;0.93;;